sensor_id;sensor_type;location;lat;lon;timestamp;temperature;humidity
64226;DHT22;50545;56.064;26.178;2023-05-18T00:01:23;7.90;99.90
64226;DHT22;50545;56.064;26.178;2023-05-18T00:03:50;7.80;99.90
64226;DHT22;50545;56.064;26.178;2023-05-18T00:06:20;7.80;99.90
64226;DHT22;50545;56.064;26.178;2023-05-18T00:08:48;7.80;99.90
64226;DHT22;50545;56.064;26.178;2023-05-18T00:11:16;7.80;99.90
64226;DHT22;50545;56.064;26.178;2023-05-18T00:13:44;7.70;99.90
64226;DHT22;50545;56.064;26.178;2023-05-18T00:16:11;7.70;99.90
64226;DHT22;50545;56.064;26.178;2023-05-18T00:18:39;7.70;99.90
64226;DHT22;50545;56.064;26.178;2023-05-18T00:21:07;7.60;99.90
64226;DHT22;50545;56.064;26.178;2023-05-18T00:23:35;7.60;99.90
64226;DHT22;50545;56.064;26.178;2023-05-18T00:26:05;7.60;99.90
64226;DHT22;50545;56.064;26.178;2023-05-18T00:28:32;7.60;99.90
64226;DHT22;50545;56.064;26.178;2023-05-18T00:31:00;7.50;99.90
64226;DHT22;50545;56.064;26.178;2023-05-18T00:33:27;7.50;99.90
64226;DHT22;50545;56.064;26.178;2023-05-18T00:35:54;7.50;99.90
64226;DHT22;50545;56.064;26.178;2023-05-18T00:38:23;7.40;99.90
64226;DHT22;50545;56.064;26.178;2023-05-18T00:40:51;7.40;99.90
64226;DHT22;50545;56.064;26.178;2023-05-18T00:43:18;7.30;99.90
64226;DHT22;50545;56.064;26.178;2023-05-18T00:45:45;7.30;99.90
64226;DHT22;50545;56.064;26.178;2023-05-18T00:48:13;7.30;99.90
64226;DHT22;50545;56.064;26.178;2023-05-18T00:50:40;7.30;99.90
64226;DHT22;50545;56.064;26.178;2023-05-18T00:53:07;7.20;99.90
64226;DHT22;50545;56.064;26.178;2023-05-18T00:55:36;7.20;99.90
64226;DHT22;50545;56.064;26.178;2023-05-18T00:58:04;7.20;99.90
64226;DHT22;50545;56.064;26.178;2023-05-18T01:00:34;7.20;99.90
64226;DHT22;50545;56.064;26.178;2023-05-18T01:03:03;7.10;99.90
64226;DHT22;50545;56.064;26.178;2023-05-18T01:05:31;7.10;99.90
64226;DHT22;50545;56.064;26.178;2023-05-18T01:07:58;7.10;99.90
64226;DHT22;50545;56.064;26.178;2023-05-18T01:10:26;7.00;99.90
64226;DHT22;50545;56.064;26.178;2023-05-18T01:12:58;7.00;99.90
64226;DHT22;50545;56.064;26.178;2023-05-18T01:15:39;7.00;99.90
64226;DHT22;50545;56.064;26.178;2023-05-18T01:18:13;7.00;99.90
64226;DHT22;50545;56.064;26.178;2023-05-18T01:20:49;6.90;99.90
64226;DHT22;50545;56.064;26.178;2023-05-18T01:26:15;6.90;99.90
64226;DHT22;50545;56.064;26.178;2023-05-18T01:28:44;6.90;99.90
64226;DHT22;50545;56.064;26.178;2023-05-18T01:31:13;6.90;99.90
64226;DHT22;50545;56.064;26.178;2023-05-18T01:33:45;6.80;99.90
64226;DHT22;50545;56.064;26.178;2023-05-18T01:36:12;6.80;99.90
64226;DHT22;50545;56.064;26.178;2023-05-18T01:38:40;6.80;99.90
64226;DHT22;50545;56.064;26.178;2023-05-18T01:41:29;6.80;99.90
64226;DHT22;50545;56.064;26.178;2023-05-18T01:44:12;6.80;99.90
64226;DHT22;50545;56.064;26.178;2023-05-18T01:49:55;6.80;99.90
64226;DHT22;50545;56.064;26.178;2023-05-18T01:52:36;6.80;99.90
64226;DHT22;50545;56.064;26.178;2023-05-18T01:55:05;6.70;99.90
64226;DHT22;50545;56.064;26.178;2023-05-18T01:57:35;6.70;99.90
64226;DHT22;50545;56.064;26.178;2023-05-18T02:00:05;6.70;99.90
64226;DHT22;50545;56.064;26.178;2023-05-18T02:02:34;6.70;99.90
64226;DHT22;50545;56.064;26.178;2023-05-18T02:05:02;6.70;99.90
64226;DHT22;50545;56.064;26.178;2023-05-18T02:07:31;6.70;99.90
64226;DHT22;50545;56.064;26.178;2023-05-18T02:09:58;6.70;99.90
64226;DHT22;50545;56.064;26.178;2023-05-18T02:12:25;6.70;99.90
64226;DHT22;50545;56.064;26.178;2023-05-18T02:14:53;6.70;99.90
64226;DHT22;50545;56.064;26.178;2023-05-18T02:17:21;6.70;99.90
64226;DHT22;50545;56.064;26.178;2023-05-18T02:19:52;6.70;99.90
64226;DHT22;50545;56.064;26.178;2023-05-18T02:22:19;6.70;99.90
64226;DHT22;50545;56.064;26.178;2023-05-18T02:24:46;6.70;99.90
64226;DHT22;50545;56.064;26.178;2023-05-18T02:27:14;6.70;99.90
64226;DHT22;50545;56.064;26.178;2023-05-18T02:29:41;6.70;99.90
64226;DHT22;50545;56.064;26.178;2023-05-18T02:32:09;6.70;99.90
64226;DHT22;50545;56.064;26.178;2023-05-18T02:34:36;6.60;99.90
64226;DHT22;50545;56.064;26.178;2023-05-18T02:37:04;6.60;99.90
64226;DHT22;50545;56.064;26.178;2023-05-18T02:39:31;6.70;99.90
64226;DHT22;50545;56.064;26.178;2023-05-18T02:41:59;6.70;99.90
64226;DHT22;50545;56.064;26.178;2023-05-18T02:44:27;6.70;99.90
64226;DHT22;50545;56.064;26.178;2023-05-18T02:46:55;6.70;99.90
64226;DHT22;50545;56.064;26.178;2023-05-18T02:49:22;6.70;99.90
64226;DHT22;50545;56.064;26.178;2023-05-18T02:51:49;6.70;99.90
64226;DHT22;50545;56.064;26.178;2023-05-18T02:54:16;6.70;99.90
64226;DHT22;50545;56.064;26.178;2023-05-18T02:56:44;6.70;99.90
64226;DHT22;50545;56.064;26.178;2023-05-18T02:59:11;6.70;99.90
64226;DHT22;50545;56.064;26.178;2023-05-18T03:01:38;6.70;99.90
64226;DHT22;50545;56.064;26.178;2023-05-18T03:04:07;6.70;99.90
64226;DHT22;50545;56.064;26.178;2023-05-18T03:06:34;6.70;99.90
64226;DHT22;50545;56.064;26.178;2023-05-18T03:09:01;6.70;99.90
64226;DHT22;50545;56.064;26.178;2023-05-18T03:11:29;6.70;99.90
64226;DHT22;50545;56.064;26.178;2023-05-18T03:13:56;6.70;99.90
64226;DHT22;50545;56.064;26.178;2023-05-18T03:16:23;6.70;99.90
64226;DHT22;50545;56.064;26.178;2023-05-18T03:18:54;6.70;99.90
64226;DHT22;50545;56.064;26.178;2023-05-18T03:21:25;6.70;99.90
64226;DHT22;50545;56.064;26.178;2023-05-18T03:23:59;6.70;99.90
64226;DHT22;50545;56.064;26.178;2023-05-18T03:26:27;6.80;99.90
64226;DHT22;50545;56.064;26.178;2023-05-18T03:28:57;6.70;99.90
64226;DHT22;50545;56.064;26.178;2023-05-18T03:31:25;6.70;99.90
64226;DHT22;50545;56.064;26.178;2023-05-18T03:33:52;6.80;99.90
64226;DHT22;50545;56.064;26.178;2023-05-18T03:36:20;6.80;99.90
64226;DHT22;50545;56.064;26.178;2023-05-18T03:38:48;6.80;99.90
64226;DHT22;50545;56.064;26.178;2023-05-18T03:41:15;6.80;99.90
64226;DHT22;50545;56.064;26.178;2023-05-18T03:43:43;6.80;99.90
64226;DHT22;50545;56.064;26.178;2023-05-18T03:46:10;6.80;99.90
64226;DHT22;50545;56.064;26.178;2023-05-18T03:48:37;6.80;99.90
64226;DHT22;50545;56.064;26.178;2023-05-18T03:51:05;6.90;99.90
64226;DHT22;50545;56.064;26.178;2023-05-18T03:53:32;6.80;99.90
64226;DHT22;50545;56.064;26.178;2023-05-18T03:55:59;6.90;99.90
64226;DHT22;50545;56.064;26.178;2023-05-18T03:58:27;6.90;99.90
64226;DHT22;50545;56.064;26.178;2023-05-18T04:00:55;6.90;99.90
64226;DHT22;50545;56.064;26.178;2023-05-18T04:03:22;7.00;99.90
64226;DHT22;50545;56.064;26.178;2023-05-18T04:05:52;7.00;99.90
64226;DHT22;50545;56.064;26.178;2023-05-18T04:08:21;7.00;99.90
64226;DHT22;50545;56.064;26.178;2023-05-18T04:10:51;7.00;99.90
64226;DHT22;50545;56.064;26.178;2023-05-18T04:13:18;7.00;99.90
64226;DHT22;50545;56.064;26.178;2023-05-18T04:15:46;7.00;99.90
64226;DHT22;50545;56.064;26.178;2023-05-18T04:18:13;7.10;99.90
64226;DHT22;50545;56.064;26.178;2023-05-18T04:20:40;7.10;99.90
64226;DHT22;50545;56.064;26.178;2023-05-18T04:23:08;7.10;99.90
64226;DHT22;50545;56.064;26.178;2023-05-18T04:25:36;7.20;99.90
64226;DHT22;50545;56.064;26.178;2023-05-18T04:28:05;7.20;99.90
64226;DHT22;50545;56.064;26.178;2023-05-18T04:30:32;7.20;99.90
64226;DHT22;50545;56.064;26.178;2023-05-18T04:33:01;7.20;99.90
64226;DHT22;50545;56.064;26.178;2023-05-18T04:35:30;7.10;99.90
64226;DHT22;50545;56.064;26.178;2023-05-18T04:37:58;7.10;99.90
64226;DHT22;50545;56.064;26.178;2023-05-18T04:40:25;7.10;99.90
64226;DHT22;50545;56.064;26.178;2023-05-18T04:42:52;7.10;99.90
64226;DHT22;50545;56.064;26.178;2023-05-18T04:45:20;7.20;99.90
64226;DHT22;50545;56.064;26.178;2023-05-18T04:47:48;7.20;99.90
64226;DHT22;50545;56.064;26.178;2023-05-18T04:50:21;7.30;99.90
64226;DHT22;50545;56.064;26.178;2023-05-18T04:52:51;7.30;99.90
64226;DHT22;50545;56.064;26.178;2023-05-18T04:55:20;7.40;99.90
64226;DHT22;50545;56.064;26.178;2023-05-18T04:57:56;7.40;99.90
64226;DHT22;50545;56.064;26.178;2023-05-18T05:00:24;7.40;99.90
64226;DHT22;50545;56.064;26.178;2023-05-18T05:02:53;7.50;99.90
64226;DHT22;50545;56.064;26.178;2023-05-18T05:05:21;7.60;99.90
64226;DHT22;50545;56.064;26.178;2023-05-18T05:07:49;7.60;99.90
64226;DHT22;50545;56.064;26.178;2023-05-18T05:10:18;7.60;99.90
64226;DHT22;50545;56.064;26.178;2023-05-18T05:12:45;7.60;99.90
64226;DHT22;50545;56.064;26.178;2023-05-18T05:15:15;7.70;99.90
64226;DHT22;50545;56.064;26.178;2023-05-18T05:17:43;7.80;99.90
64226;DHT22;50545;56.064;26.178;2023-05-18T05:20:10;7.90;99.90
64226;DHT22;50545;56.064;26.178;2023-05-18T05:22:37;7.90;99.90
64226;DHT22;50545;56.064;26.178;2023-05-18T05:25:05;8.00;99.90
64226;DHT22;50545;56.064;26.178;2023-05-18T05:27:33;8.10;99.90
64226;DHT22;50545;56.064;26.178;2023-05-18T05:30:00;8.20;99.90
64226;DHT22;50545;56.064;26.178;2023-05-18T05:32:27;8.20;99.90
64226;DHT22;50545;56.064;26.178;2023-05-18T05:34:55;8.30;99.90
64226;DHT22;50545;56.064;26.178;2023-05-18T05:37:22;8.30;99.90
64226;DHT22;50545;56.064;26.178;2023-05-18T05:39:49;8.40;99.90
64226;DHT22;50545;56.064;26.178;2023-05-18T05:42:17;8.40;99.90
64226;DHT22;50545;56.064;26.178;2023-05-18T05:44:45;8.40;99.90
64226;DHT22;50545;56.064;26.178;2023-05-18T05:47:12;8.40;99.90
64226;DHT22;50545;56.064;26.178;2023-05-18T05:49:39;8.40;99.90
64226;DHT22;50545;56.064;26.178;2023-05-18T05:52:07;8.40;99.90
64226;DHT22;50545;56.064;26.178;2023-05-18T05:54:34;8.40;99.90
64226;DHT22;50545;56.064;26.178;2023-05-18T05:57:01;8.40;99.90
64226;DHT22;50545;56.064;26.178;2023-05-18T05:59:29;8.50;99.90
64226;DHT22;50545;56.064;26.178;2023-05-18T06:01:57;8.50;99.90
64226;DHT22;50545;56.064;26.178;2023-05-18T06:04:24;8.50;99.90
64226;DHT22;50545;56.064;26.178;2023-05-18T06:06:52;8.50;99.90
64226;DHT22;50545;56.064;26.178;2023-05-18T06:09:20;8.50;99.90
64226;DHT22;50545;56.064;26.178;2023-05-18T06:11:47;8.60;99.90
64226;DHT22;50545;56.064;26.178;2023-05-18T06:14:14;8.60;99.90
64226;DHT22;50545;56.064;26.178;2023-05-18T06:16:41;8.70;99.90
64226;DHT22;50545;56.064;26.178;2023-05-18T06:19:09;8.70;99.90
64226;DHT22;50545;56.064;26.178;2023-05-18T06:21:37;8.70;99.90
64226;DHT22;50545;56.064;26.178;2023-05-18T06:24:04;8.70;99.90
64226;DHT22;50545;56.064;26.178;2023-05-18T06:26:32;8.80;99.90
64226;DHT22;50545;56.064;26.178;2023-05-18T06:28:59;8.70;99.80
64226;DHT22;50545;56.064;26.178;2023-05-18T06:31:27;8.70;99.90
64226;DHT22;50545;56.064;26.178;2023-05-18T06:33:56;8.60;99.60
64226;DHT22;50545;56.064;26.178;2023-05-18T06:36:23;8.60;99.90
64226;DHT22;50545;56.064;26.178;2023-05-18T06:38:50;8.60;99.90
64226;DHT22;50545;56.064;26.178;2023-05-18T06:41:18;8.60;99.90
64226;DHT22;50545;56.064;26.178;2023-05-18T06:43:45;8.60;99.90
64226;DHT22;50545;56.064;26.178;2023-05-18T06:46:20;8.80;99.90
64226;DHT22;50545;56.064;26.178;2023-05-18T06:48:47;9.00;99.90
64226;DHT22;50545;56.064;26.178;2023-05-18T06:51:14;9.20;98.60
64226;DHT22;50545;56.064;26.178;2023-05-18T06:53:42;9.30;98.50
64226;DHT22;50545;56.064;26.178;2023-05-18T06:56:09;9.60;99.20
64226;DHT22;50545;56.064;26.178;2023-05-18T06:58:40;9.80;97.30
64226;DHT22;50545;56.064;26.178;2023-05-18T07:01:09;10.00;97.00
64226;DHT22;50545;56.064;26.178;2023-05-18T07:03:36;10.30;96.20
64226;DHT22;50545;56.064;26.178;2023-05-18T07:06:04;10.40;95.30
64226;DHT22;50545;56.064;26.178;2023-05-18T07:08:32;10.40;94.20
64226;DHT22;50545;56.064;26.178;2023-05-18T07:10:59;10.40;93.90
64226;DHT22;50545;56.064;26.178;2023-05-18T07:13:28;10.40;93.60
64226;DHT22;50545;56.064;26.178;2023-05-18T07:15:55;10.40;95.00
64226;DHT22;50545;56.064;26.178;2023-05-18T07:18:23;10.60;94.20
64226;DHT22;50545;56.064;26.178;2023-05-18T07:20:50;10.80;94.90
64226;DHT22;50545;56.064;26.178;2023-05-18T07:23:18;10.90;91.00
64226;DHT22;50545;56.064;26.178;2023-05-18T07:25:45;10.90;91.80
64226;DHT22;50545;56.064;26.178;2023-05-18T07:28:12;10.90;91.40
64226;DHT22;50545;56.064;26.178;2023-05-18T07:30:40;10.90;92.50
64226;DHT22;50545;56.064;26.178;2023-05-18T07:33:07;10.90;91.20
64226;DHT22;50545;56.064;26.178;2023-05-18T07:35:35;11.00;92.30
64226;DHT22;50545;56.064;26.178;2023-05-18T07:38:02;11.30;92.30
64226;DHT22;50545;56.064;26.178;2023-05-18T07:40:29;11.40;90.80
64226;DHT22;50545;56.064;26.178;2023-05-18T07:42:56;11.60;90.70
64226;DHT22;50545;56.064;26.178;2023-05-18T07:45:23;11.60;89.60
64226;DHT22;50545;56.064;26.178;2023-05-18T07:47:51;11.60;90.00
64226;DHT22;50545;56.064;26.178;2023-05-18T07:50:18;11.80;89.60
64226;DHT22;50545;56.064;26.178;2023-05-18T07:52:45;11.80;88.30
64226;DHT22;50545;56.064;26.178;2023-05-18T07:55:12;11.90;89.20
64226;DHT22;50545;56.064;26.178;2023-05-18T07:57:39;12.10;88.10
64226;DHT22;50545;56.064;26.178;2023-05-18T08:00:07;12.20;89.30
64226;DHT22;50545;56.064;26.178;2023-05-18T08:02:36;12.20;86.50
64226;DHT22;50545;56.064;26.178;2023-05-18T08:05:04;12.10;86.20
64226;DHT22;50545;56.064;26.178;2023-05-18T08:07:31;12.10;88.60
64226;DHT22;50545;56.064;26.178;2023-05-18T08:09:59;12.00;87.20
64226;DHT22;50545;56.064;26.178;2023-05-18T08:12:26;12.00;90.70
64226;DHT22;50545;56.064;26.178;2023-05-18T08:14:55;12.00;91.50
64226;DHT22;50545;56.064;26.178;2023-05-18T08:17:22;12.00;86.10
64226;DHT22;50545;56.064;26.178;2023-05-18T08:19:49;11.90;86.50
64226;DHT22;50545;56.064;26.178;2023-05-18T08:22:19;12.00;82.80
64226;DHT22;50545;56.064;26.178;2023-05-18T08:24:47;12.20;85.30
64226;DHT22;50545;56.064;26.178;2023-05-18T08:27:14;12.50;86.00
64226;DHT22;50545;56.064;26.178;2023-05-18T08:29:41;12.80;78.80
64226;DHT22;50545;56.064;26.178;2023-05-18T08:32:08;12.90;78.10
64226;DHT22;50545;56.064;26.178;2023-05-18T08:34:36;13.10;80.70
64226;DHT22;50545;56.064;26.178;2023-05-18T08:37:04;13.20;78.30
64226;DHT22;50545;56.064;26.178;2023-05-18T08:39:31;13.30;80.40
64226;DHT22;50545;56.064;26.178;2023-05-18T08:44:37;13.60;81.90
64226;DHT22;50545;56.064;26.178;2023-05-18T08:47:08;13.70;77.00
64226;DHT22;50545;56.064;26.178;2023-05-18T08:49:37;13.80;78.40
64226;DHT22;50545;56.064;26.178;2023-05-18T08:52:07;13.70;77.00
64226;DHT22;50545;56.064;26.178;2023-05-18T08:54:36;13.70;73.90
64226;DHT22;50545;56.064;26.178;2023-05-18T08:57:07;13.70;72.70
64226;DHT22;50545;56.064;26.178;2023-05-18T08:59:39;13.60;78.10
64226;DHT22;50545;56.064;26.178;2023-05-18T09:02:07;13.80;78.40
64226;DHT22;50545;56.064;26.178;2023-05-18T09:04:37;13.90;77.00
64226;DHT22;50545;56.064;26.178;2023-05-18T09:07:06;14.10;79.40
64226;DHT22;50545;56.064;26.178;2023-05-18T09:09:34;14.30;73.00
64226;DHT22;50545;56.064;26.178;2023-05-18T09:12:02;14.40;74.20
64226;DHT22;50545;56.064;26.178;2023-05-18T09:14:31;14.40;69.50
64226;DHT22;50545;56.064;26.178;2023-05-18T09:16:59;14.30;71.60
64226;DHT22;50545;56.064;26.178;2023-05-18T09:19:26;14.50;75.90
64226;DHT22;50545;56.064;26.178;2023-05-18T09:21:54;14.60;71.10
64226;DHT22;50545;56.064;26.178;2023-05-18T09:24:22;14.70;75.30
64226;DHT22;50545;56.064;26.178;2023-05-18T09:26:50;14.90;73.20
64226;DHT22;50545;56.064;26.178;2023-05-18T09:29:19;14.90;63.30
64226;DHT22;50545;56.064;26.178;2023-05-18T09:31:47;14.70;63.50
64226;DHT22;50545;56.064;26.178;2023-05-18T09:34:15;14.70;67.00
64226;DHT22;50545;56.064;26.178;2023-05-18T09:36:51;14.90;71.90
64226;DHT22;50545;56.064;26.178;2023-05-18T09:39:23;15.00;64.50
64226;DHT22;50545;56.064;26.178;2023-05-18T09:41:54;15.00;59.90
64226;DHT22;50545;56.064;26.178;2023-05-18T09:44:33;15.10;64.20
64226;DHT22;50545;56.064;26.178;2023-05-18T09:47:01;15.30;63.50
64226;DHT22;50545;56.064;26.178;2023-05-18T09:49:30;15.30;65.40
64226;DHT22;50545;56.064;26.178;2023-05-18T09:51:57;15.40;60.10
64226;DHT22;50545;56.064;26.178;2023-05-18T09:54:27;15.50;64.00
64226;DHT22;50545;56.064;26.178;2023-05-18T09:56:56;15.40;62.00
64226;DHT22;50545;56.064;26.178;2023-05-18T09:59:36;15.50;62.90
64226;DHT22;50545;56.064;26.178;2023-05-18T10:02:04;15.70;64.10
64226;DHT22;50545;56.064;26.178;2023-05-18T10:04:41;15.80;60.30
64226;DHT22;50545;56.064;26.178;2023-05-18T10:07:14;16.10;63.50
64226;DHT22;50545;56.064;26.178;2023-05-18T10:09:43;16.10;57.90
64226;DHT22;50545;56.064;26.178;2023-05-18T10:12:13;16.00;59.40
64226;DHT22;50545;56.064;26.178;2023-05-18T10:14:43;15.90;58.60
64226;DHT22;50545;56.064;26.178;2023-05-18T10:17:12;16.20;64.90
64226;DHT22;50545;56.064;26.178;2023-05-18T10:19:43;16.20;58.10
64226;DHT22;50545;56.064;26.178;2023-05-18T10:22:15;16.30;57.60
64226;DHT22;50545;56.064;26.178;2023-05-18T10:24:45;16.20;58.20
64226;DHT22;50545;56.064;26.178;2023-05-18T10:27:19;16.20;57.30
64226;DHT22;50545;56.064;26.178;2023-05-18T10:29:49;16.00;58.70
64226;DHT22;50545;56.064;26.178;2023-05-18T10:32:19;15.60;58.10
64226;DHT22;50545;56.064;26.178;2023-05-18T10:34:54;15.50;62.80
64226;DHT22;50545;56.064;26.178;2023-05-18T10:37:22;15.60;62.60
64226;DHT22;50545;56.064;26.178;2023-05-18T10:39:51;15.80;60.60
64226;DHT22;50545;56.064;26.178;2023-05-18T10:42:20;16.20;62.50
64226;DHT22;50545;56.064;26.178;2023-05-18T10:44:49;16.20;55.70
64226;DHT22;50545;56.064;26.178;2023-05-18T10:47:19;16.20;61.40
64226;DHT22;50545;56.064;26.178;2023-05-18T10:49:47;16.40;55.90
64226;DHT22;50545;56.064;26.178;2023-05-18T10:52:19;16.40;56.10
64226;DHT22;50545;56.064;26.178;2023-05-18T10:54:47;16.30;56.80
64226;DHT22;50545;56.064;26.178;2023-05-18T10:57:17;16.20;60.00
64226;DHT22;50545;56.064;26.178;2023-05-18T10:59:46;16.10;55.60
64226;DHT22;50545;56.064;26.178;2023-05-18T11:02:16;16.20;53.30
64226;DHT22;50545;56.064;26.178;2023-05-18T11:04:45;16.30;54.30
64226;DHT22;50545;56.064;26.178;2023-05-18T11:07:14;16.40;55.90
64226;DHT22;50545;56.064;26.178;2023-05-18T11:09:42;16.10;57.50
64226;DHT22;50545;56.064;26.178;2023-05-18T11:12:14;15.90;56.80
64226;DHT22;50545;56.064;26.178;2023-05-18T11:14:54;15.80;58.30
64226;DHT22;50545;56.064;26.178;2023-05-18T11:17:24;16.00;58.40
64226;DHT22;50545;56.064;26.178;2023-05-18T11:27:53;16.90;57.40
64226;DHT22;50545;56.064;26.178;2023-05-18T11:33:10;17.50;53.90
64226;DHT22;50545;56.064;26.178;2023-05-18T11:36:01;17.20;54.20
64226;DHT22;50545;56.064;26.178;2023-05-18T11:41:35;16.90;61.40
64226;DHT22;50545;56.064;26.178;2023-05-18T11:44:14;17.00;54.70
64226;DHT22;50545;56.064;26.178;2023-05-18T11:57:20;18.20;54.70
64226;DHT22;50545;56.064;26.178;2023-05-18T11:59:57;18.10;50.80
64226;DHT22;50545;56.064;26.178;2023-05-18T12:02:26;18.00;54.30
64226;DHT22;50545;56.064;26.178;2023-05-18T12:04:56;17.80;53.20
64226;DHT22;50545;56.064;26.178;2023-05-18T12:07:23;17.70;53.00
64226;DHT22;50545;56.064;26.178;2023-05-18T12:09:51;17.80;55.50
64226;DHT22;50545;56.064;26.178;2023-05-18T12:12:18;18.30;61.60
64226;DHT22;50545;56.064;26.178;2023-05-18T12:14:57;18.80;55.70
64226;DHT22;50545;56.064;26.178;2023-05-18T12:20:11;19.00;51.10
64226;DHT22;50545;56.064;26.178;2023-05-18T12:22:40;19.00;50.70
64226;DHT22;50545;56.064;26.178;2023-05-18T12:25:08;19.10;53.70
64226;DHT22;50545;56.064;26.178;2023-05-18T12:27:46;19.00;49.50
64226;DHT22;50545;56.064;26.178;2023-05-18T12:30:19;19.00;50.60
64226;DHT22;50545;56.064;26.178;2023-05-18T12:32:50;18.80;50.20
64226;DHT22;50545;56.064;26.178;2023-05-18T12:35:29;18.60;50.70
64226;DHT22;50545;56.064;26.178;2023-05-18T12:37:58;18.40;51.70
64226;DHT22;50545;56.064;26.178;2023-05-18T12:55:07;19.30;50.20
64226;DHT22;50545;56.064;26.178;2023-05-18T12:57:36;19.30;48.60
64226;DHT22;50545;56.064;26.178;2023-05-18T13:00:11;19.00;49.60
64226;DHT22;50545;56.064;26.178;2023-05-18T13:02:38;18.70;49.60
64226;DHT22;50545;56.064;26.178;2023-05-18T13:05:10;18.60;51.00
64226;DHT22;50545;56.064;26.178;2023-05-18T13:07:42;18.70;51.30
64226;DHT22;50545;56.064;26.178;2023-05-18T13:10:14;18.70;50.20
64226;DHT22;50545;56.064;26.178;2023-05-18T13:12:42;18.90;51.00
64226;DHT22;50545;56.064;26.178;2023-05-18T13:15:15;19.10;45.80
64226;DHT22;50545;56.064;26.178;2023-05-18T13:17:59;19.20;48.90
64226;DHT22;50545;56.064;26.178;2023-05-18T13:23:08;19.50;54.80
64226;DHT22;50545;56.064;26.178;2023-05-18T13:25:36;19.70;49.00
64226;DHT22;50545;56.064;26.178;2023-05-18T13:28:05;19.80;45.00
64226;DHT22;50545;56.064;26.178;2023-05-18T13:30:32;19.60;44.70
64226;DHT22;50545;56.064;26.178;2023-05-18T13:33:00;19.10;43.70
64226;DHT22;50545;56.064;26.178;2023-05-18T13:35:27;18.80;47.30
64226;DHT22;50545;56.064;26.178;2023-05-18T13:37:55;19.00;45.80
64226;DHT22;50545;56.064;26.178;2023-05-18T13:40:23;19.50;47.10
64226;DHT22;50545;56.064;26.178;2023-05-18T13:42:51;20.20;44.50
64226;DHT22;50545;56.064;26.178;2023-05-18T13:45:19;20.40;42.20
64226;DHT22;50545;56.064;26.178;2023-05-18T13:47:49;20.50;44.00
64226;DHT22;50545;56.064;26.178;2023-05-18T13:50:18;20.60;42.70
64226;DHT22;50545;56.064;26.178;2023-05-18T13:52:46;20.70;42.40
64226;DHT22;50545;56.064;26.178;2023-05-18T13:55:14;20.70;41.10
64226;DHT22;50545;56.064;26.178;2023-05-18T13:57:41;20.50;43.70
64226;DHT22;50545;56.064;26.178;2023-05-18T14:00:09;20.50;44.20
64226;DHT22;50545;56.064;26.178;2023-05-18T14:02:41;20.20;41.20
64226;DHT22;50545;56.064;26.178;2023-05-18T14:05:09;20.10;45.00
64226;DHT22;50545;56.064;26.178;2023-05-18T14:07:37;20.10;43.20
64226;DHT22;50545;56.064;26.178;2023-05-18T14:10:06;20.30;46.50
64226;DHT22;50545;56.064;26.178;2023-05-18T14:12:35;20.10;42.10
64226;DHT22;50545;56.064;26.178;2023-05-18T14:15:03;19.70;42.40
64226;DHT22;50545;56.064;26.178;2023-05-18T14:17:30;19.70;43.40
64226;DHT22;50545;56.064;26.178;2023-05-18T14:20:01;19.70;42.20
64226;DHT22;50545;56.064;26.178;2023-05-18T14:22:31;19.90;42.40
64226;DHT22;50545;56.064;26.178;2023-05-18T14:24:58;19.80;41.20
64226;DHT22;50545;56.064;26.178;2023-05-18T14:27:27;20.00;41.80
64226;DHT22;50545;56.064;26.178;2023-05-18T14:29:54;20.30;42.60
64226;DHT22;50545;56.064;26.178;2023-05-18T14:32:22;20.70;45.00
64226;DHT22;50545;56.064;26.178;2023-05-18T14:34:50;20.90;40.20
64226;DHT22;50545;56.064;26.178;2023-05-18T14:37:18;21.00;41.60
64226;DHT22;50545;56.064;26.178;2023-05-18T14:39:45;21.20;43.30
64226;DHT22;50545;56.064;26.178;2023-05-18T14:42:12;21.50;42.40
64226;DHT22;50545;56.064;26.178;2023-05-18T14:44:39;21.80;39.40
64226;DHT22;50545;56.064;26.178;2023-05-18T14:47:07;21.90;37.60
64226;DHT22;50545;56.064;26.178;2023-05-18T14:49:35;21.60;38.20
64226;DHT22;50545;56.064;26.178;2023-05-18T14:52:03;21.70;40.90
64226;DHT22;50545;56.064;26.178;2023-05-18T14:54:30;21.70;42.30
64226;DHT22;50545;56.064;26.178;2023-05-18T14:56:57;21.40;37.80
64226;DHT22;50545;56.064;26.178;2023-05-18T14:59:25;21.20;38.80
64226;DHT22;50545;56.064;26.178;2023-05-18T15:01:53;21.50;42.30
64226;DHT22;50545;56.064;26.178;2023-05-18T15:04:20;21.90;40.00
64226;DHT22;50545;56.064;26.178;2023-05-18T15:06:48;22.20;38.30
64226;DHT22;50545;56.064;26.178;2023-05-18T15:09:15;22.30;37.40
64226;DHT22;50545;56.064;26.178;2023-05-18T15:11:43;22.40;37.80
64226;DHT22;50545;56.064;26.178;2023-05-18T15:14:10;22.40;38.80
64226;DHT22;50545;56.064;26.178;2023-05-18T15:16:37;22.20;35.60
64226;DHT22;50545;56.064;26.178;2023-05-18T15:19:05;21.90;36.50
64226;DHT22;50545;56.064;26.178;2023-05-18T15:21:32;22.00;40.40
64226;DHT22;50545;56.064;26.178;2023-05-18T15:24:00;22.10;35.80
64226;DHT22;50545;56.064;26.178;2023-05-18T15:26:27;22.20;37.70
64226;DHT22;50545;56.064;26.178;2023-05-18T15:28:55;22.20;35.00
64226;DHT22;50545;56.064;26.178;2023-05-18T15:31:22;21.60;34.80
64226;DHT22;50545;56.064;26.178;2023-05-18T15:33:49;21.50;36.30
64226;DHT22;50545;56.064;26.178;2023-05-18T15:36:17;21.40;37.60
64226;DHT22;50545;56.064;26.178;2023-05-18T15:38:44;21.30;38.10
64226;DHT22;50545;56.064;26.178;2023-05-18T15:41:11;21.40;38.30
64226;DHT22;50545;56.064;26.178;2023-05-18T15:43:39;21.50;34.50
64226;DHT22;50545;56.064;26.178;2023-05-18T15:46:07;21.30;37.30
64226;DHT22;50545;56.064;26.178;2023-05-18T15:48:35;21.00;39.20
64226;DHT22;50545;56.064;26.178;2023-05-18T15:51:02;21.00;35.90
64226;DHT22;50545;56.064;26.178;2023-05-18T15:53:29;20.70;36.70
64226;DHT22;50545;56.064;26.178;2023-05-18T15:55:57;20.40;37.50
64226;DHT22;50545;56.064;26.178;2023-05-18T15:58:25;20.20;37.10
64226;DHT22;50545;56.064;26.178;2023-05-18T16:00:52;20.30;38.90
64226;DHT22;50545;56.064;26.178;2023-05-18T16:03:20;20.10;35.60
64226;DHT22;50545;56.064;26.178;2023-05-18T16:05:47;19.90;37.30
64226;DHT22;50545;56.064;26.178;2023-05-18T16:08:14;19.70;36.90
64226;DHT22;50545;56.064;26.178;2023-05-18T16:10:41;19.70;40.00
64226;DHT22;50545;56.064;26.178;2023-05-18T16:13:09;19.80;38.40
64226;DHT22;50545;56.064;26.178;2023-05-18T16:15:36;20.10;38.20
64226;DHT22;50545;56.064;26.178;2023-05-18T16:18:03;20.40;37.60
64226;DHT22;50545;56.064;26.178;2023-05-18T16:20:31;20.70;36.90
64226;DHT22;50545;56.064;26.178;2023-05-18T16:22:58;20.90;37.50
64226;DHT22;50545;56.064;26.178;2023-05-18T16:25:25;21.20;37.60